CheckWX is a tool to help pilots better visualize weather data.  It is not intended as a substitute for an official pre-flight weather briefing.

01:49:56 UTC

WAPP TAF
Pattimura , Ambon Airport
Ambon, Indonesia
TAF WAPP 232300Z 2400/2424 35009KT 9999 FEW019

Feb-24@
00:00 UTC

Feb-24 @ 00:00 UTC

Feb-25@
00:00 UTC

Feb-25 @ 00:00 UTC

TAF WAPP 232300Z 2400/2424 35009KT 9999 FEW019
Wind
  • 350° at 9 KTS
Cloud Levels
  • Few at 1,900' AGL